sensor_id;sensor_type;location;lat;lon;timestamp;P1;durP1;ratioP1;P2;durP2;ratioP2
67100;SDS011;54019;61.746;16.106;2023-02-08T00:02:03;0.93;;;0.70;;
67100;SDS011;54019;61.746;16.106;2023-02-08T00:04:29;0.98;;;0.80;;
67100;SDS011;54019;61.746;16.106;2023-02-08T00:06:56;0.73;;;0.68;;
67100;SDS011;54019;61.746;16.106;2023-02-08T00:09:22;1.48;;;0.73;;
67100;SDS011;54019;61.746;16.106;2023-02-08T00:11:48;0.70;;;0.70;;
67100;SDS011;54019;61.746;16.106;2023-02-08T00:14:14;0.82;;;0.70;;
67100;SDS011;54019;61.746;16.106;2023-02-08T00:16:40;1.00;;;0.70;;
67100;SDS011;54019;61.746;16.106;2023-02-08T00:19:05;0.70;;;0.70;;
67100;SDS011;54019;61.746;16.106;2023-02-08T00:21:31;0.60;;;0.60;;
67100;SDS011;54019;61.746;16.106;2023-02-08T00:23:59;0.43;;;0.43;;
67100;SDS011;54019;61.746;16.106;2023-02-08T00:26:24;0.60;;;0.60;;
67100;SDS011;54019;61.746;16.106;2023-02-08T00:28:50;0.80;;;0.60;;
67100;SDS011;54019;61.746;16.106;2023-02-08T00:31:16;0.98;;;0.43;;
67100;SDS011;54019;61.746;16.106;2023-02-08T00:33:42;0.73;;;0.70;;
67100;SDS011;54019;61.746;16.106;2023-02-08T00:36:07;1.13;;;0.70;;
67100;SDS011;54019;61.746;16.106;2023-02-08T00:38:35;0.70;;;0.50;;
67100;SDS011;54019;61.746;16.106;2023-02-08T00:41:03;1.00;;;0.70;;
67100;SDS011;54019;61.746;16.106;2023-02-08T00:43:30;0.50;;;0.50;;
67100;SDS011;54019;61.746;16.106;2023-02-08T00:45:56;0.85;;;0.60;;
67100;SDS011;54019;61.746;16.106;2023-02-08T00:48:23;2.25;;;0.60;;
67100;SDS011;54019;61.746;16.106;2023-02-08T00:50:56;0.50;;;0.50;;
67100;SDS011;54019;61.746;16.106;2023-02-08T00:53:22;0.65;;;0.60;;
67100;SDS011;54019;61.746;16.106;2023-02-08T00:55:49;0.82;;;0.50;;
67100;SDS011;54019;61.746;16.106;2023-02-08T00:58:16;0.68;;;0.68;;
67100;SDS011;54019;61.746;16.106;2023-02-08T01:00:42;0.63;;;0.63;;
67100;SDS011;54019;61.746;16.106;2023-02-08T01:03:08;1.40;;;0.40;;
67100;SDS011;54019;61.746;16.106;2023-02-08T01:05:36;1.85;;;0.57;;
67100;SDS011;54019;61.746;16.106;2023-02-08T01:08:01;0.45;;;0.45;;
67100;SDS011;54019;61.746;16.106;2023-02-08T01:10:27;0.60;;;0.40;;
67100;SDS011;54019;61.746;16.106;2023-02-08T01:12:53;1.25;;;0.70;;
67100;SDS011;54019;61.746;16.106;2023-02-08T01:15:20;0.45;;;0.45;;
67100;SDS011;54019;61.746;16.106;2023-02-08T01:17:46;0.40;;;0.40;;
67100;SDS011;54019;61.746;16.106;2023-02-08T01:20:12;0.40;;;0.40;;
67100;SDS011;54019;61.746;16.106;2023-02-08T01:22:37;2.35;;;0.60;;
67100;SDS011;54019;61.746;16.106;2023-02-08T01:25:03;1.15;;;0.45;;
67100;SDS011;54019;61.746;16.106;2023-02-08T01:27:29;0.50;;;0.40;;
67100;SDS011;54019;61.746;16.106;2023-02-08T01:29:55;0.35;;;0.35;;
67100;SDS011;54019;61.746;16.106;2023-02-08T01:32:22;1.05;;;0.50;;
67100;SDS011;54019;61.746;16.106;2023-02-08T01:34:48;0.45;;;0.45;;
67100;SDS011;54019;61.746;16.106;2023-02-08T01:37:14;0.30;;;0.30;;
67100;SDS011;54019;61.746;16.106;2023-02-08T01:39:39;0.57;;;0.50;;
67100;SDS011;54019;61.746;16.106;2023-02-08T01:42:05;0.35;;;0.35;;
67100;SDS011;54019;61.746;16.106;2023-02-08T01:47:44;1.13;;;0.43;;
67100;SDS011;54019;61.746;16.106;2023-02-08T01:50:13;0.30;;;0.30;;
67100;SDS011;54019;61.746;16.106;2023-02-08T01:52:41;0.50;;;0.43;;
67100;SDS011;54019;61.746;16.106;2023-02-08T01:55:10;0.55;;;0.40;;
67100;SDS011;54019;61.746;16.106;2023-02-08T01:57:52;0.73;;;0.40;;
67100;SDS011;54019;61.746;16.106;2023-02-08T02:00:21;0.30;;;0.30;;
67100;SDS011;54019;61.746;16.106;2023-02-08T02:02:51;0.47;;;0.40;;
67100;SDS011;54019;61.746;16.106;2023-02-08T02:05:19;0.30;;;0.30;;
67100;SDS011;54019;61.746;16.106;2023-02-08T02:07:46;0.50;;;0.43;;
67100;SDS011;54019;61.746;16.106;2023-02-08T02:10:15;0.98;;;0.50;;
67100;SDS011;54019;61.746;16.106;2023-02-08T02:12:46;0.60;;;0.40;;
67100;SDS011;54019;61.746;16.106;2023-02-08T02:15:13;0.35;;;0.35;;
67100;SDS011;54019;61.746;16.106;2023-02-08T02:17:39;0.50;;;0.40;;
67100;SDS011;54019;61.746;16.106;2023-02-08T02:20:07;0.50;;;0.40;;
67100;SDS011;54019;61.746;16.106;2023-02-08T02:32:07;1.38;;;0.47;;
67100;SDS011;54019;61.746;16.106;2023-02-08T02:34:39;0.38;;;0.38;;
67100;SDS011;54019;61.746;16.106;2023-02-08T02:37:11;0.30;;;0.30;;
67100;SDS011;54019;61.746;16.106;2023-02-08T02:39:53;0.70;;;0.40;;
67100;SDS011;54019;61.746;16.106;2023-02-08T02:42:27;0.40;;;0.40;;
67100;SDS011;54019;61.746;16.106;2023-02-08T02:45:02;0.50;;;0.43;;
67100;SDS011;54019;61.746;16.106;2023-02-08T02:47:37;0.30;;;0.30;;
67100;SDS011;54019;61.746;16.106;2023-02-08T02:50:09;0.70;;;0.38;;
67100;SDS011;54019;61.746;16.106;2023-02-08T02:52:42;1.95;;;0.30;;
67100;SDS011;54019;61.746;16.106;2023-02-08T02:55:13;0.30;;;0.28;;
67100;SDS011;54019;61.746;16.106;2023-02-08T02:57:42;0.40;;;0.30;;
67100;SDS011;54019;61.746;16.106;2023-02-08T03:00:11;0.40;;;0.30;;
67100;SDS011;54019;61.746;16.106;2023-02-08T03:02:46;0.28;;;0.20;;
67100;SDS011;54019;61.746;16.106;2023-02-08T03:05:12;0.65;;;0.40;;
67100;SDS011;54019;61.746;16.106;2023-02-08T03:13:25;2.05;;;0.40;;
67100;SDS011;54019;61.746;16.106;2023-02-08T03:16:00;0.50;;;0.40;;
67100;SDS011;54019;61.746;16.106;2023-02-08T03:18:36;0.22;;;0.22;;
67100;SDS011;54019;61.746;16.106;2023-02-08T03:21:11;0.38;;;0.38;;
67100;SDS011;54019;61.746;16.106;2023-02-08T03:23:44;0.47;;;0.30;;
67100;SDS011;54019;61.746;16.106;2023-02-08T03:26:21;1.35;;;0.35;;
67100;SDS011;54019;61.746;16.106;2023-02-08T03:28:57;0.73;;;0.30;;
67100;SDS011;54019;61.746;16.106;2023-02-08T03:31:31;0.38;;;0.30;;
67100;SDS011;54019;61.746;16.106;2023-02-08T03:34:04;0.98;;;0.45;;
67100;SDS011;54019;61.746;16.106;2023-02-08T03:36:33;0.98;;;0.32;;
67100;SDS011;54019;61.746;16.106;2023-02-08T03:39:07;1.42;;;0.30;;
67100;SDS011;54019;61.746;16.106;2023-02-08T03:41:37;0.30;;;0.30;;
67100;SDS011;54019;61.746;16.106;2023-02-08T03:44:08;0.30;;;0.30;;
67100;SDS011;54019;61.746;16.106;2023-02-08T03:46:39;0.35;;;0.30;;
67100;SDS011;54019;61.746;16.106;2023-02-08T03:49:10;1.05;;;0.30;;
67100;SDS011;54019;61.746;16.106;2023-02-08T03:51:39;0.88;;;0.50;;
67100;SDS011;54019;61.746;16.106;2023-02-08T03:54:09;1.00;;;0.40;;
67100;SDS011;54019;61.746;16.106;2023-02-08T03:56:42;1.33;;;0.30;;
67100;SDS011;54019;61.746;16.106;2023-02-08T03:59:11;0.73;;;0.52;;
67100;SDS011;54019;61.746;16.106;2023-02-08T04:01:42;1.13;;;0.30;;
67100;SDS011;54019;61.746;16.106;2023-02-08T04:04:13;1.67;;;0.50;;
67100;SDS011;54019;61.746;16.106;2023-02-08T04:06:40;0.57;;;0.50;;
67100;SDS011;54019;61.746;16.106;2023-02-08T04:09:06;3.40;;;0.60;;
67100;SDS011;54019;61.746;16.106;2023-02-08T04:11:32;0.90;;;0.50;;
67100;SDS011;54019;61.746;16.106;2023-02-08T04:13:58;3.40;;;0.85;;
67100;SDS011;54019;61.746;16.106;2023-02-08T04:16:23;2.15;;;0.50;;
67100;SDS011;54019;61.746;16.106;2023-02-08T04:18:49;0.30;;;0.30;;
67100;SDS011;54019;61.746;16.106;2023-02-08T04:21:16;1.20;;;0.40;;
67100;SDS011;54019;61.746;16.106;2023-02-08T04:23:42;0.40;;;0.30;;
67100;SDS011;54019;61.746;16.106;2023-02-08T04:26:08;0.73;;;0.38;;
67100;SDS011;54019;61.746;16.106;2023-02-08T04:28:33;0.95;;;0.63;;
67100;SDS011;54019;61.746;16.106;2023-02-08T04:30:59;0.60;;;0.50;;
67100;SDS011;54019;61.746;16.106;2023-02-08T04:33:25;0.40;;;0.40;;
67100;SDS011;54019;61.746;16.106;2023-02-08T04:35:51;0.45;;;0.40;;
67100;SDS011;54019;61.746;16.106;2023-02-08T04:38:18;0.40;;;0.40;;
67100;SDS011;54019;61.746;16.106;2023-02-08T04:40:44;0.65;;;0.57;;
67100;SDS011;54019;61.746;16.106;2023-02-08T04:43:10;1.33;;;0.50;;
67100;SDS011;54019;61.746;16.106;2023-02-08T04:45:35;1.48;;;0.50;;
67100;SDS011;54019;61.746;16.106;2023-02-08T04:48:01;1.17;;;0.50;;
67100;SDS011;54019;61.746;16.106;2023-02-08T04:50:28;1.13;;;0.40;;
67100;SDS011;54019;61.746;16.106;2023-02-08T04:52:54;0.50;;;0.50;;
67100;SDS011;54019;61.746;16.106;2023-02-08T04:55:21;0.75;;;0.60;;
67100;SDS011;54019;61.746;16.106;2023-02-08T04:57:47;0.50;;;0.50;;
67100;SDS011;54019;61.746;16.106;2023-02-08T05:00:13;0.50;;;0.50;;
67100;SDS011;54019;61.746;16.106;2023-02-08T05:02:39;0.40;;;0.40;;
67100;SDS011;54019;61.746;16.106;2023-02-08T05:05:05;0.98;;;0.50;;
67100;SDS011;54019;61.746;16.106;2023-02-08T05:07:31;1.30;;;0.50;;
67100;SDS011;54019;61.746;16.106;2023-02-08T05:09:56;0.90;;;0.70;;
67100;SDS011;54019;61.746;16.106;2023-02-08T05:12:24;0.60;;;0.60;;
67100;SDS011;54019;61.746;16.106;2023-02-08T05:14:49;0.50;;;0.50;;
67100;SDS011;54019;61.746;16.106;2023-02-08T05:17:15;0.50;;;0.50;;
67100;SDS011;54019;61.746;16.106;2023-02-08T05:19:41;0.50;;;0.50;;
67100;SDS011;54019;61.746;16.106;2023-02-08T05:22:07;1.00;;;0.40;;
67100;SDS011;54019;61.746;16.106;2023-02-08T05:24:32;0.70;;;0.40;;
67100;SDS011;54019;61.746;16.106;2023-02-08T05:26:58;0.38;;;0.38;;
67100;SDS011;54019;61.746;16.106;2023-02-08T05:29:25;0.63;;;0.50;;
67100;SDS011;54019;61.746;16.106;2023-02-08T05:31:52;0.40;;;0.40;;
67100;SDS011;54019;61.746;16.106;2023-02-08T05:34:17;0.50;;;0.50;;
67100;SDS011;54019;61.746;16.106;2023-02-08T05:36:43;0.43;;;0.43;;
67100;SDS011;54019;61.746;16.106;2023-02-08T05:39:09;0.68;;;0.50;;
67100;SDS011;54019;61.746;16.106;2023-02-08T05:41:35;2.35;;;0.50;;
67100;SDS011;54019;61.746;16.106;2023-02-08T05:44:02;3.90;;;0.70;;
67100;SDS011;54019;61.746;16.106;2023-02-08T05:46:29;4.35;;;0.57;;
67100;SDS011;54019;61.746;16.106;2023-02-08T05:48:55;6.07;;;0.57;;
67100;SDS011;54019;61.746;16.106;2023-02-08T05:51:21;1.88;;;0.57;;
67100;SDS011;54019;61.746;16.106;2023-02-08T05:53:46;1.65;;;0.70;;
67100;SDS011;54019;61.746;16.106;2023-02-08T05:56:12;2.05;;;0.70;;
67100;SDS011;54019;61.746;16.106;2023-02-08T05:58:38;4.80;;;0.60;;
67100;SDS011;54019;61.746;16.106;2023-02-08T06:01:06;4.55;;;0.60;;
67100;SDS011;54019;61.746;16.106;2023-02-08T06:03:34;2.00;;;0.50;;
67100;SDS011;54019;61.746;16.106;2023-02-08T06:06:00;6.82;;;0.70;;
67100;SDS011;54019;61.746;16.106;2023-02-08T06:08:26;4.18;;;0.68;;
67100;SDS011;54019;61.746;16.106;2023-02-08T06:10:52;1.25;;;0.70;;
67100;SDS011;54019;61.746;16.106;2023-02-08T06:13:18;5.75;;;0.68;;
67100;SDS011;54019;61.746;16.106;2023-02-08T06:15:44;8.85;;;2.00;;
67100;SDS011;54019;61.746;16.106;2023-02-08T06:18:10;5.05;;;1.50;;
67100;SDS011;54019;61.746;16.106;2023-02-08T06:20:37;5.47;;;1.10;;
67100;SDS011;54019;61.746;16.106;2023-02-08T06:23:03;5.57;;;1.23;;
67100;SDS011;54019;61.746;16.106;2023-02-08T06:25:29;5.28;;;1.40;;
67100;SDS011;54019;61.746;16.106;2023-02-08T06:27:55;4.30;;;1.20;;
67100;SDS011;54019;61.746;16.106;2023-02-08T06:30:21;2.00;;;0.90;;
67100;SDS011;54019;61.746;16.106;2023-02-08T06:32:47;3.15;;;1.00;;
67100;SDS011;54019;61.746;16.106;2023-02-08T06:35:13;1.95;;;1.02;;
67100;SDS011;54019;61.746;16.106;2023-02-08T06:37:40;1.58;;;0.82;;
67100;SDS011;54019;61.746;16.106;2023-02-08T06:40:06;2.17;;;0.77;;
67100;SDS011;54019;61.746;16.106;2023-02-08T06:42:33;2.78;;;0.98;;
67100;SDS011;54019;61.746;16.106;2023-02-08T06:44:58;3.22;;;0.80;;
67100;SDS011;54019;61.746;16.106;2023-02-08T06:47:25;4.78;;;0.70;;
67100;SDS011;54019;61.746;16.106;2023-02-08T06:49:51;0.77;;;0.65;;
67100;SDS011;54019;61.746;16.106;2023-02-08T06:52:17;1.77;;;0.70;;
67100;SDS011;54019;61.746;16.106;2023-02-08T06:54:45;1.75;;;0.73;;
67100;SDS011;54019;61.746;16.106;2023-02-08T06:57:11;1.52;;;0.70;;
67100;SDS011;54019;61.746;16.106;2023-02-08T06:59:37;1.00;;;0.60;;
67100;SDS011;54019;61.746;16.106;2023-02-08T07:02:02;1.05;;;0.70;;
67100;SDS011;54019;61.746;16.106;2023-02-08T07:04:28;0.93;;;0.70;;
67100;SDS011;54019;61.746;16.106;2023-02-08T07:06:54;1.73;;;0.60;;
67100;SDS011;54019;61.746;16.106;2023-02-08T07:09:20;0.60;;;0.60;;
67100;SDS011;54019;61.746;16.106;2023-02-08T07:11:48;0.68;;;0.50;;
67100;SDS011;54019;61.746;16.106;2023-02-08T07:14:13;3.22;;;0.60;;
67100;SDS011;54019;61.746;16.106;2023-02-08T07:16:40;0.50;;;0.50;;
67100;SDS011;54019;61.746;16.106;2023-02-08T07:19:06;1.83;;;0.45;;
67100;SDS011;54019;61.746;16.106;2023-02-08T07:21:32;0.93;;;0.50;;
67100;SDS011;54019;61.746;16.106;2023-02-08T07:23:58;0.50;;;0.50;;
67100;SDS011;54019;61.746;16.106;2023-02-08T07:26:23;0.68;;;0.63;;
67100;SDS011;54019;61.746;16.106;2023-02-08T07:28:51;0.77;;;0.65;;
67100;SDS011;54019;61.746;16.106;2023-02-08T07:31:17;1.30;;;0.70;;
67100;SDS011;54019;61.746;16.106;2023-02-08T07:33:43;0.47;;;0.47;;
67100;SDS011;54019;61.746;16.106;2023-02-08T07:36:09;0.55;;;0.50;;
67100;SDS011;54019;61.746;16.106;2023-02-08T07:38:35;1.30;;;0.60;;
67100;SDS011;54019;61.746;16.106;2023-02-08T07:41:03;0.82;;;0.40;;
67100;SDS011;54019;61.746;16.106;2023-02-08T07:43:30;3.33;;;0.60;;
67100;SDS011;54019;61.746;16.106;2023-02-08T07:46:03;0.57;;;0.57;;
67100;SDS011;54019;61.746;16.106;2023-02-08T07:48:29;1.00;;;0.68;;
67100;SDS011;54019;61.746;16.106;2023-02-08T07:50:55;0.45;;;0.45;;
67100;SDS011;54019;61.746;16.106;2023-02-08T07:53:21;0.43;;;0.43;;
67100;SDS011;54019;61.746;16.106;2023-02-08T07:55:47;0.60;;;0.60;;
67100;SDS011;54019;61.746;16.106;2023-02-08T07:58:12;1.67;;;0.50;;
67100;SDS011;54019;61.746;16.106;2023-02-08T08:00:38;0.47;;;0.47;;
67100;SDS011;54019;61.746;16.106;2023-02-08T08:03:06;1.75;;;0.75;;
67100;SDS011;54019;61.746;16.106;2023-02-08T08:05:32;0.50;;;0.50;;
67100;SDS011;54019;61.746;16.106;2023-02-08T08:07:58;2.60;;;0.40;;
67100;SDS011;54019;61.746;16.106;2023-02-08T08:10:24;1.00;;;0.65;;
67100;SDS011;54019;61.746;16.106;2023-02-08T08:12:49;0.52;;;0.43;;
67100;SDS011;54019;61.746;16.106;2023-02-08T08:15:15;1.40;;;0.55;;
67100;SDS011;54019;61.746;16.106;2023-02-08T08:17:41;0.47;;;0.47;;
67100;SDS011;54019;61.746;16.106;2023-02-08T08:20:09;0.52;;;0.50;;
67100;SDS011;54019;61.746;16.106;2023-02-08T08:22:35;1.75;;;0.63;;
67100;SDS011;54019;61.746;16.106;2023-02-08T08:25:01;1.85;;;0.70;;
67100;SDS011;54019;61.746;16.106;2023-02-08T08:27:27;0.57;;;0.45;;
67100;SDS011;54019;61.746;16.106;2023-02-08T08:29:53;0.40;;;0.40;;
67100;SDS011;54019;61.746;16.106;2023-02-08T08:32:19;0.70;;;0.68;;
67100;SDS011;54019;61.746;16.106;2023-02-08T08:34:45;0.82;;;0.40;;
67100;SDS011;54019;61.746;16.106;2023-02-08T08:37:12;0.65;;;0.40;;
67100;SDS011;54019;61.746;16.106;2023-02-08T08:39:38;1.70;;;0.40;;
67100;SDS011;54019;61.746;16.106;2023-02-08T08:42:04;0.40;;;0.40;;
67100;SDS011;54019;61.746;16.106;2023-02-08T08:44:30;0.60;;;0.60;;
67100;SDS011;54019;61.746;16.106;2023-02-08T08:46:56;0.32;;;0.32;;
67100;SDS011;54019;61.746;16.106;2023-02-08T08:49:23;0.32;;;0.32;;
67100;SDS011;54019;61.746;16.106;2023-02-08T08:51:50;0.50;;;0.50;;
67100;SDS011;54019;61.746;16.106;2023-02-08T08:54:17;0.40;;;0.40;;
67100;SDS011;54019;61.746;16.106;2023-02-08T08:56:44;2.55;;;0.50;;
67100;SDS011;54019;61.746;16.106;2023-02-08T08:59:10;0.40;;;0.40;;
67100;SDS011;54019;61.746;16.106;2023-02-08T09:01:36;0.77;;;0.50;;
67100;SDS011;54019;61.746;16.106;2023-02-08T09:04:02;0.47;;;0.30;;
67100;SDS011;54019;61.746;16.106;2023-02-08T09:06:28;0.82;;;0.55;;
67100;SDS011;54019;61.746;16.106;2023-02-08T09:08:54;0.50;;;0.47;;
67100;SDS011;54019;61.746;16.106;2023-02-08T09:11:21;0.47;;;0.45;;
67100;SDS011;54019;61.746;16.106;2023-02-08T09:13:47;1.00;;;0.40;;
67100;SDS011;54019;61.746;16.106;2023-02-08T09:16:14;0.50;;;0.50;;
67100;SDS011;54019;61.746;16.106;2023-02-08T09:18:41;0.50;;;0.50;;
67100;SDS011;54019;61.746;16.106;2023-02-08T09:21:08;0.40;;;0.40;;
67100;SDS011;54019;61.746;16.106;2023-02-08T09:23:35;0.40;;;0.40;;
67100;SDS011;54019;61.746;16.106;2023-02-08T09:26:01;0.40;;;0.40;;
67100;SDS011;54019;61.746;16.106;2023-02-08T09:28:29;0.57;;;0.57;;
67100;SDS011;54019;61.746;16.106;2023-02-08T09:30:55;0.40;;;0.40;;
67100;SDS011;54019;61.746;16.106;2023-02-08T09:33:21;0.50;;;0.50;;
67100;SDS011;54019;61.746;16.106;2023-02-08T09:35:46;0.47;;;0.45;;
67100;SDS011;54019;61.746;16.106;2023-02-08T09:38:12;0.40;;;0.40;;
67100;SDS011;54019;61.746;16.106;2023-02-08T09:40:40;0.43;;;0.43;;
67100;SDS011;54019;61.746;16.106;2023-02-08T09:43:15;0.40;;;0.40;;
67100;SDS011;54019;61.746;16.106;2023-02-08T09:45:48;0.40;;;0.40;;
67100;SDS011;54019;61.746;16.106;2023-02-08T09:48:19;0.77;;;0.50;;
67100;SDS011;54019;61.746;16.106;2023-02-08T09:50:49;0.32;;;0.32;;
67100;SDS011;54019;61.746;16.106;2023-02-08T09:53:19;2.08;;;0.70;;
67100;SDS011;54019;61.746;16.106;2023-02-08T09:55:49;1.30;;;0.60;;
67100;SDS011;54019;61.746;16.106;2023-02-08T09:58:20;0.90;;;0.60;;
67100;SDS011;54019;61.746;16.106;2023-02-08T10:00:50;2.75;;;1.13;;
67100;SDS011;54019;61.746;16.106;2023-02-08T10:03:22;3.22;;;2.05;;
67100;SDS011;54019;61.746;16.106;2023-02-08T10:05:53;4.75;;;3.10;;
67100;SDS011;54019;61.746;16.106;2023-02-08T10:08:19;5.00;;;3.00;;
67100;SDS011;54019;61.746;16.106;2023-02-08T10:10:48;3.13;;;2.63;;
67100;SDS011;54019;61.746;16.106;2023-02-08T10:13:23;3.47;;;2.42;;
67100;SDS011;54019;61.746;16.106;2023-02-08T10:16:04;2.88;;;2.00;;
67100;SDS011;54019;61.746;16.106;2023-02-08T10:18:38;2.83;;;1.90;;
67100;SDS011;54019;61.746;16.106;2023-02-08T10:21:20;1.55;;;1.42;;
67100;SDS011;54019;61.746;16.106;2023-02-08T10:24:07;1.60;;;1.50;;
67100;SDS011;54019;61.746;16.106;2023-02-08T10:26:47;2.08;;;1.35;;
67100;SDS011;54019;61.746;16.106;2023-02-08T10:29:28;1.15;;;1.05;;
67100;SDS011;54019;61.746;16.106;2023-02-08T10:32:22;1.35;;;1.23;;
67100;SDS011;54019;61.746;16.106;2023-02-08T10:35:02;2.15;;;1.02;;
67100;SDS011;54019;61.746;16.106;2023-02-08T10:37:34;1.08;;;0.93;;
67100;SDS011;54019;61.746;16.106;2023-02-08T10:40:07;1.33;;;1.00;;
67100;SDS011;54019;61.746;16.106;2023-02-08T10:42:44;1.05;;;0.95;;
67100;SDS011;54019;61.746;16.106;2023-02-08T10:45:14;8.60;;;1.38;;
67100;SDS011;54019;61.746;16.106;2023-02-08T10:47:50;0.60;;;0.60;;
67100;SDS011;54019;61.746;16.106;2023-02-08T10:50:19;2.13;;;0.73;;
67100;SDS011;54019;61.746;16.106;2023-02-08T10:52:49;0.73;;;0.60;;
67100;SDS011;54019;61.746;16.106;2023-02-08T10:55:16;0.75;;;0.75;;
67100;SDS011;54019;61.746;16.106;2023-02-08T10:57:43;0.90;;;0.65;;
67100;SDS011;54019;61.746;16.106;2023-02-08T11:00:12;0.43;;;0.43;;
67100;SDS011;54019;61.746;16.106;2023-02-08T11:02:42;0.65;;;0.50;;
67100;SDS011;54019;61.746;16.106;2023-02-08T11:05:11;1.33;;;0.70;;
67100;SDS011;54019;61.746;16.106;2023-02-08T11:07:38;0.82;;;0.47;;
67100;SDS011;54019;61.746;16.106;2023-02-08T11:10:14;1.77;;;0.60;;
67100;SDS011;54019;61.746;16.106;2023-02-08T11:12:55;1.85;;;0.50;;
67100;SDS011;54019;61.746;16.106;2023-02-08T11:15:23;0.52;;;0.43;;
67100;SDS011;54019;61.746;16.106;2023-02-08T11:17:52;0.47;;;0.47;;
67100;SDS011;54019;61.746;16.106;2023-02-08T11:20:24;0.40;;;0.40;;
67100;SDS011;54019;61.746;16.106;2023-02-08T11:25:30;0.40;;;0.40;;
67100;SDS011;54019;61.746;16.106;2023-02-08T11:28:02;0.52;;;0.45;;
67100;SDS011;54019;61.746;16.106;2023-02-08T11:30:29;0.40;;;0.32;;
67100;SDS011;54019;61.746;16.106;2023-02-08T11:33:13;0.50;;;0.50;;
67100;SDS011;54019;61.746;16.106;2023-02-08T11:35:42;9.88;;;1.05;;
67100;SDS011;54019;61.746;16.106;2023-02-08T11:38:20;3.50;;;0.60;;
67100;SDS011;54019;61.746;16.106;2023-02-08T11:40:46;9.57;;;0.55;;
67100;SDS011;54019;61.746;16.106;2023-02-08T11:43:18;1.65;;;0.30;;
67100;SDS011;54019;61.746;16.106;2023-02-08T11:45:46;3.30;;;0.50;;
67100;SDS011;54019;61.746;16.106;2023-02-08T11:48:15;2.35;;;0.40;;
67100;SDS011;54019;61.746;16.106;2023-02-08T11:50:52;3.20;;;0.40;;
67100;SDS011;54019;61.746;16.106;2023-02-08T11:53:20;4.28;;;0.35;;
67100;SDS011;54019;61.746;16.106;2023-02-08T11:55:59;4.63;;;0.50;;
67100;SDS011;54019;61.746;16.106;2023-02-08T11:58:27;1.25;;;0.40;;
67100;SDS011;54019;61.746;16.106;2023-02-08T12:00:56;3.45;;;0.30;;
67100;SDS011;54019;61.746;16.106;2023-02-08T12:03:25;2.22;;;0.30;;
67100;SDS011;54019;61.746;16.106;2023-02-08T12:05:58;0.30;;;0.30;;
67100;SDS011;54019;61.746;16.106;2023-02-08T12:08:38;0.77;;;0.45;;
67100;SDS011;54019;61.746;16.106;2023-02-08T12:11:09;2.47;;;0.40;;
67100;SDS011;54019;61.746;16.106;2023-02-08T12:13:55;4.57;;;0.50;;
67100;SDS011;54019;61.746;16.106;2023-02-08T12:16:43;1.38;;;0.30;;
67100;SDS011;54019;61.746;16.106;2023-02-08T12:19:35;0.30;;;0.30;;
67100;SDS011;54019;61.746;16.106;2023-02-08T12:22:17;3.05;;;0.30;;
67100;SDS011;54019;61.746;16.106;2023-02-08T12:24:49;0.85;;;0.40;;
67100;SDS011;54019;61.746;16.106;2023-02-08T12:27:25;1.02;;;0.10;;
67100;SDS011;54019;61.746;16.106;2023-02-08T12:30:01;2.65;;;0.20;;
67100;SDS011;54019;61.746;16.106;2023-02-08T12:32:38;0.22;;;0.22;;
67100;SDS011;54019;61.746;16.106;2023-02-08T12:35:23;0.20;;;0.20;;
67100;SDS011;54019;61.746;16.106;2023-02-08T12:38:04;1.60;;;0.20;;
67100;SDS011;54019;61.746;16.106;2023-02-08T12:40:39;0.35;;;0.20;;
67100;SDS011;54019;61.746;16.106;2023-02-08T12:43:15;0.10;;;0.10;;
67100;SDS011;54019;61.746;16.106;2023-02-08T12:45:55;0.10;;;0.10;;
67100;SDS011;54019;61.746;16.106;2023-02-08T12:48:39;0.20;;;0.20;;
67100;SDS011;54019;61.746;16.106;2023-02-08T12:51:18;0.30;;;0.10;;
67100;SDS011;54019;61.746;16.106;2023-02-08T12:53:52;0.10;;;0.10;;
67100;SDS011;54019;61.746;16.106;2023-02-08T12:56:22;1.98;;;0.30;;
67100;SDS011;54019;61.746;16.106;2023-02-08T12:58:51;0.52;;;0.20;;
67100;SDS011;54019;61.746;16.106;2023-02-08T13:01:20;0.50;;;0.20;;
67100;SDS011;54019;61.746;16.106;2023-02-08T13:03:50;0.30;;;0.20;;
67100;SDS011;54019;61.746;16.106;2023-02-08T13:06:20;0.80;;;0.25;;
67100;SDS011;54019;61.746;16.106;2023-02-08T13:08:51;0.60;;;0.20;;
67100;SDS011;54019;61.746;16.106;2023-02-08T13:11:23;0.73;;;0.30;;
67100;SDS011;54019;61.746;16.106;2023-02-08T13:16:23;2.33;;;0.40;;
67100;SDS011;54019;61.746;16.106;2023-02-08T13:18:53;2.83;;;0.55;;
67100;SDS011;54019;61.746;16.106;2023-02-08T13:21:31;1.00;;;0.40;;
67100;SDS011;54019;61.746;16.106;2023-02-08T13:24:02;1.13;;;0.30;;
67100;SDS011;54019;61.746;16.106;2023-02-08T13:26:34;2.47;;;0.30;;
67100;SDS011;54019;61.746;16.106;2023-02-08T13:29:03;2.65;;;0.28;;
67100;SDS011;54019;61.746;16.106;2023-02-08T13:31:30;1.98;;;0.20;;
67100;SDS011;54019;61.746;16.106;2023-02-08T13:34:00;1.45;;;0.30;;
67100;SDS011;54019;61.746;16.106;2023-02-08T13:36:30;2.40;;;0.40;;
67100;SDS011;54019;61.746;16.106;2023-02-08T13:38:58;1.17;;;0.30;;
67100;SDS011;54019;61.746;16.106;2023-02-08T13:41:26;2.97;;;0.40;;
67100;SDS011;54019;61.746;16.106;2023-02-08T13:43:54;1.75;;;0.30;;
67100;SDS011;54019;61.746;16.106;2023-02-08T13:46:22;1.27;;;0.20;;
67100;SDS011;54019;61.746;16.106;2023-02-08T13:48:52;1.00;;;0.20;;
67100;SDS011;54019;61.746;16.106;2023-02-08T13:54:24;0.20;;;0.20;;
67100;SDS011;54019;61.746;16.106;2023-02-08T13:56:52;0.20;;;0.20;;
67100;SDS011;54019;61.746;16.106;2023-02-08T13:59:28;0.68;;;0.20;;
67100;SDS011;54019;61.746;16.106;2023-02-08T14:04:46;1.48;;;0.17;;
67100;SDS011;54019;61.746;16.106;2023-02-08T14:07:15;0.70;;;0.30;;
67100;SDS011;54019;61.746;16.106;2023-02-08T14:10:03;1.00;;;0.20;;
67100;SDS011;54019;61.746;16.106;2023-02-08T14:12:41;0.45;;;0.20;;
67100;SDS011;54019;61.746;16.106;2023-02-08T14:17:58;0.57;;;0.10;;
67100;SDS011;54019;61.746;16.106;2023-02-08T14:20:27;0.65;;;0.20;;
67100;SDS011;54019;61.746;16.106;2023-02-08T14:22:59;0.88;;;0.20;;
67100;SDS011;54019;61.746;16.106;2023-02-08T14:25:28;0.20;;;0.20;;
67100;SDS011;54019;61.746;16.106;2023-02-08T14:28:20;0.28;;;0.17;;
67100;SDS011;54019;61.746;16.106;2023-02-08T14:30:49;1.63;;;0.20;;
67100;SDS011;54019;61.746;16.106;2023-02-08T14:33:17;0.20;;;0.10;;
67100;SDS011;54019;61.746;16.106;2023-02-08T14:35:50;0.20;;;0.15;;
67100;SDS011;54019;61.746;16.106;2023-02-08T14:38:35;0.70;;;0.10;;
67100;SDS011;54019;61.746;16.106;2023-02-08T14:50:26;0.32;;;0.10;;
67100;SDS011;54019;61.746;16.106;2023-02-08T14:53:04;0.20;;;0.10;;
67100;SDS011;54019;61.746;16.106;2023-02-08T14:55:39;0.10;;;0.10;;
67100;SDS011;54019;61.746;16.106;2023-02-08T14:58:11;1.02;;;0.10;;
67100;SDS011;54019;61.746;16.106;2023-02-08T15:00:45;0.30;;;0.10;;
67100;SDS011;54019;61.746;16.106;2023-02-08T15:03:16;0.10;;;0.10;;
67100;SDS011;54019;61.746;16.106;2023-02-08T15:05:43;0.43;;;0.10;;
67100;SDS011;54019;61.746;16.106;2023-02-08T15:08:22;1.10;;;0.10;;
67100;SDS011;54019;61.746;16.106;2023-02-08T15:10:49;0.20;;;0.20;;
67100;SDS011;54019;61.746;16.106;2023-02-08T15:13:16;0.10;;;0.10;;
67100;SDS011;54019;61.746;16.106;2023-02-08T15:15:44;0.10;;;0.10;;
67100;SDS011;54019;61.746;16.106;2023-02-08T15:18:17;0.22;;;0.10;;
67100;SDS011;54019;61.746;16.106;2023-02-08T15:20:52;0.10;;;0.10;;
67100;SDS011;54019;61.746;16.106;2023-02-08T15:23:25;0.05;;;0.00;;
67100;SDS011;54019;61.746;16.106;2023-02-08T15:25:54;0.10;;;0.10;;
67100;SDS011;54019;61.746;16.106;2023-02-08T15:28:21;0.00;;;0.00;;